sensor_id;sensor_type;location;lat;lon;timestamp;P1;durP1;ratioP1;P2;durP2;ratioP2
10045;SDS011;5063;50.878;4.742;2022-10-17T00:01:08;8.27;;;7.43;;
10045;SDS011;5063;50.878;4.742;2022-10-17T00:03:35;8.77;;;7.83;;
10045;SDS011;5063;50.878;4.742;2022-10-17T00:06:11;9.00;;;7.40;;
10045;SDS011;5063;50.878;4.742;2022-10-17T00:08:38;10.60;;;7.90;;
10045;SDS011;5063;50.878;4.742;2022-10-17T00:11:15;8.43;;;7.13;;
10045;SDS011;5063;50.878;4.742;2022-10-17T00:13:43;8.97;;;8.07;;
10045;SDS011;5063;50.878;4.742;2022-10-17T00:16:09;8.73;;;7.80;;
10045;SDS011;5063;50.878;4.742;2022-10-17T00:18:35;9.33;;;8.43;;
10045;SDS011;5063;50.878;4.742;2022-10-17T00:21:01;11.50;;;8.00;;
10045;SDS011;5063;50.878;4.742;2022-10-17T00:23:27;10.87;;;8.30;;
10045;SDS011;5063;50.878;4.742;2022-10-17T00:25:58;10.07;;;7.57;;
10045;SDS011;5063;50.878;4.742;2022-10-17T00:28:25;12.47;;;7.47;;
10045;SDS011;5063;50.878;4.742;2022-10-17T00:30:55;10.40;;;7.40;;
10045;SDS011;5063;50.878;4.742;2022-10-17T00:33:22;12.37;;;7.00;;
10045;SDS011;5063;50.878;4.742;2022-10-17T00:35:48;11.77;;;7.53;;
10045;SDS011;5063;50.878;4.742;2022-10-17T00:38:13;12.33;;;10.60;;
10045;SDS011;5063;50.878;4.742;2022-10-17T00:40:39;20.70;;;18.80;;
10045;SDS011;5063;50.878;4.742;2022-10-17T00:43:10;10.10;;;9.20;;
10045;SDS011;5063;50.878;4.742;2022-10-17T00:45:40;10.60;;;9.53;;
10045;SDS011;5063;50.878;4.742;2022-10-17T00:48:06;11.50;;;7.77;;
10045;SDS011;5063;50.878;4.742;2022-10-17T00:50:35;8.73;;;7.40;;
10045;SDS011;5063;50.878;4.742;2022-10-17T00:53:03;10.30;;;6.90;;
10045;SDS011;5063;50.878;4.742;2022-10-17T00:55:41;9.67;;;6.60;;
10045;SDS011;5063;50.878;4.742;2022-10-17T00:58:12;9.97;;;7.73;;
10045;SDS011;5063;50.878;4.742;2022-10-17T01:00:39;8.67;;;7.33;;
10045;SDS011;5063;50.878;4.742;2022-10-17T01:03:05;10.40;;;8.03;;
10045;SDS011;5063;50.878;4.742;2022-10-17T01:05:31;7.93;;;7.17;;
10045;SDS011;5063;50.878;4.742;2022-10-17T01:07:57;11.13;;;6.77;;
10045;SDS011;5063;50.878;4.742;2022-10-17T01:10:25;8.53;;;6.47;;
10045;SDS011;5063;50.878;4.742;2022-10-17T01:13:07;9.37;;;6.73;;
10045;SDS011;5063;50.878;4.742;2022-10-17T01:21:07;8.40;;;6.33;;
10045;SDS011;5063;50.878;4.742;2022-10-17T01:32:18;10.20;;;6.53;;
10045;SDS011;5063;50.878;4.742;2022-10-17T01:37:19;7.70;;;6.77;;
10045;SDS011;5063;50.878;4.742;2022-10-17T01:42:49;7.80;;;5.70;;
10045;SDS011;5063;50.878;4.742;2022-10-17T01:45:34;10.43;;;6.70;;
10045;SDS011;5063;50.878;4.742;2022-10-17T01:48:28;9.23;;;5.83;;
10045;SDS011;5063;50.878;4.742;2022-10-17T01:51:00;10.17;;;5.97;;
10045;SDS011;5063;50.878;4.742;2022-10-17T01:53:41;8.90;;;6.13;;
10045;SDS011;5063;50.878;4.742;2022-10-17T01:56:23;7.93;;;6.17;;
10045;SDS011;5063;50.878;4.742;2022-10-17T01:58:52;6.93;;;5.47;;
10045;SDS011;5063;50.878;4.742;2022-10-17T02:01:21;10.03;;;6.30;;
10045;SDS011;5063;50.878;4.742;2022-10-17T02:03:50;6.80;;;5.70;;
10045;SDS011;5063;50.878;4.742;2022-10-17T02:06:17;10.70;;;6.43;;
10045;SDS011;5063;50.878;4.742;2022-10-17T02:08:44;10.47;;;6.03;;
10045;SDS011;5063;50.878;4.742;2022-10-17T02:16:24;8.10;;;5.83;;
10045;SDS011;5063;50.878;4.742;2022-10-17T02:24:28;10.97;;;7.17;;
10045;SDS011;5063;50.878;4.742;2022-10-17T02:29:36;6.90;;;4.93;;
10045;SDS011;5063;50.878;4.742;2022-10-17T02:32:12;6.47;;;5.87;;
10045;SDS011;5063;50.878;4.742;2022-10-17T02:34:45;8.63;;;5.87;;
10045;SDS011;5063;50.878;4.742;2022-10-17T02:37:14;9.00;;;5.73;;
10045;SDS011;5063;50.878;4.742;2022-10-17T02:39:43;6.40;;;5.60;;
10045;SDS011;5063;50.878;4.742;2022-10-17T02:42:11;8.10;;;5.97;;
10045;SDS011;5063;50.878;4.742;2022-10-17T02:44:39;9.37;;;5.37;;
10045;SDS011;5063;50.878;4.742;2022-10-17T02:47:21;6.13;;;4.67;;
10045;SDS011;5063;50.878;4.742;2022-10-17T02:49:52;8.37;;;5.00;;
10045;SDS011;5063;50.878;4.742;2022-10-17T02:54:57;5.77;;;5.17;;
10045;SDS011;5063;50.878;4.742;2022-10-17T02:57:40;6.47;;;4.97;;
10045;SDS011;5063;50.878;4.742;2022-10-17T03:00:18;7.40;;;5.80;;
10045;SDS011;5063;50.878;4.742;2022-10-17T03:02:47;8.57;;;5.73;;
10045;SDS011;5063;50.878;4.742;2022-10-17T03:05:23;6.80;;;5.67;;
10045;SDS011;5063;50.878;4.742;2022-10-17T03:07:50;6.20;;;5.03;;
10045;SDS011;5063;50.878;4.742;2022-10-17T03:10:17;5.60;;;5.07;;
10045;SDS011;5063;50.878;4.742;2022-10-17T03:12:43;7.30;;;5.60;;
10045;SDS011;5063;50.878;4.742;2022-10-17T03:15:09;9.27;;;4.93;;
10045;SDS011;5063;50.878;4.742;2022-10-17T03:17:36;6.47;;;5.00;;
10045;SDS011;5063;50.878;4.742;2022-10-17T03:20:02;7.03;;;4.93;;
10045;SDS011;5063;50.878;4.742;2022-10-17T03:22:29;7.20;;;5.47;;
10045;SDS011;5063;50.878;4.742;2022-10-17T03:24:54;9.00;;;5.53;;
10045;SDS011;5063;50.878;4.742;2022-10-17T03:27:20;7.80;;;5.13;;
10045;SDS011;5063;50.878;4.742;2022-10-17T03:29:46;11.53;;;5.30;;
10045;SDS011;5063;50.878;4.742;2022-10-17T03:32:11;5.07;;;4.50;;
10045;SDS011;5063;50.878;4.742;2022-10-17T03:34:37;7.80;;;5.33;;
10045;SDS011;5063;50.878;4.742;2022-10-17T03:37:03;5.97;;;5.00;;
10045;SDS011;5063;50.878;4.742;2022-10-17T03:39:29;10.13;;;5.13;;
10045;SDS011;5063;50.878;4.742;2022-10-17T03:41:55;7.93;;;5.37;;
10045;SDS011;5063;50.878;4.742;2022-10-17T03:44:20;5.60;;;4.93;;
10045;SDS011;5063;50.878;4.742;2022-10-17T03:46:46;5.27;;;4.57;;
10045;SDS011;5063;50.878;4.742;2022-10-17T03:49:12;8.13;;;4.90;;
10045;SDS011;5063;50.878;4.742;2022-10-17T03:51:37;6.17;;;5.20;;
10045;SDS011;5063;50.878;4.742;2022-10-17T03:54:03;9.17;;;4.77;;
10045;SDS011;5063;50.878;4.742;2022-10-17T03:56:29;5.53;;;4.73;;
10045;SDS011;5063;50.878;4.742;2022-10-17T03:58:55;5.57;;;4.93;;
10045;SDS011;5063;50.878;4.742;2022-10-17T04:01:20;5.83;;;4.67;;
10045;SDS011;5063;50.878;4.742;2022-10-17T04:03:50;7.97;;;4.43;;
10045;SDS011;5063;50.878;4.742;2022-10-17T04:06:17;5.13;;;4.63;;
10045;SDS011;5063;50.878;4.742;2022-10-17T04:08:43;5.97;;;4.90;;
10045;SDS011;5063;50.878;4.742;2022-10-17T04:11:10;7.13;;;5.07;;
10045;SDS011;5063;50.878;4.742;2022-10-17T04:13:42;5.43;;;4.70;;
10045;SDS011;5063;50.878;4.742;2022-10-17T04:16:12;9.63;;;5.30;;
10045;SDS011;5063;50.878;4.742;2022-10-17T04:18:39;9.47;;;4.80;;
10045;SDS011;5063;50.878;4.742;2022-10-17T04:21:05;7.33;;;4.93;;
10045;SDS011;5063;50.878;4.742;2022-10-17T04:23:32;5.23;;;4.73;;
10045;SDS011;5063;50.878;4.742;2022-10-17T04:25:58;5.97;;;5.37;;
10045;SDS011;5063;50.878;4.742;2022-10-17T04:28:25;8.17;;;5.13;;
10045;SDS011;5063;50.878;4.742;2022-10-17T04:30:58;6.80;;;4.87;;
10045;SDS011;5063;50.878;4.742;2022-10-17T04:33:26;5.00;;;4.57;;
10045;SDS011;5063;50.878;4.742;2022-10-17T04:35:58;7.53;;;4.30;;
10045;SDS011;5063;50.878;4.742;2022-10-17T04:38:24;9.77;;;5.30;;
10045;SDS011;5063;50.878;4.742;2022-10-17T04:40:50;5.17;;;4.70;;
10045;SDS011;5063;50.878;4.742;2022-10-17T04:43:16;5.93;;;4.43;;
10045;SDS011;5063;50.878;4.742;2022-10-17T04:45:42;6.40;;;4.50;;
10045;SDS011;5063;50.878;4.742;2022-10-17T04:48:07;5.47;;;4.87;;
10045;SDS011;5063;50.878;4.742;2022-10-17T04:50:33;7.07;;;4.73;;
10045;SDS011;5063;50.878;4.742;2022-10-17T04:52:59;6.13;;;4.97;;
10045;SDS011;5063;50.878;4.742;2022-10-17T04:55:24;9.07;;;5.10;;
10045;SDS011;5063;50.878;4.742;2022-10-17T04:57:50;5.60;;;5.07;;
10045;SDS011;5063;50.878;4.742;2022-10-17T05:00:16;5.27;;;4.77;;
10045;SDS011;5063;50.878;4.742;2022-10-17T05:02:41;6.97;;;4.97;;
10045;SDS011;5063;50.878;4.742;2022-10-17T05:05:07;6.40;;;5.20;;
10045;SDS011;5063;50.878;4.742;2022-10-17T05:07:33;6.97;;;4.87;;
10045;SDS011;5063;50.878;4.742;2022-10-17T05:09:59;4.83;;;4.27;;
10045;SDS011;5063;50.878;4.742;2022-10-17T05:12:25;7.30;;;4.67;;
10045;SDS011;5063;50.878;4.742;2022-10-17T05:14:50;6.67;;;4.97;;
10045;SDS011;5063;50.878;4.742;2022-10-17T05:17:16;8.00;;;4.73;;
10045;SDS011;5063;50.878;4.742;2022-10-17T05:19:42;8.23;;;4.77;;
10045;SDS011;5063;50.878;4.742;2022-10-17T05:22:07;7.80;;;5.27;;
10045;SDS011;5063;50.878;4.742;2022-10-17T05:24:33;7.03;;;4.80;;
10045;SDS011;5063;50.878;4.742;2022-10-17T05:26:59;4.60;;;4.13;;
10045;SDS011;5063;50.878;4.742;2022-10-17T05:29:24;6.30;;;4.53;;
10045;SDS011;5063;50.878;4.742;2022-10-17T05:31:50;7.50;;;4.70;;
10045;SDS011;5063;50.878;4.742;2022-10-17T05:34:16;8.37;;;5.20;;
10045;SDS011;5063;50.878;4.742;2022-10-17T05:36:41;8.53;;;5.03;;
10045;SDS011;5063;50.878;4.742;2022-10-17T05:39:07;6.10;;;4.50;;
10045;SDS011;5063;50.878;4.742;2022-10-17T05:41:33;5.60;;;4.00;;
10045;SDS011;5063;50.878;4.742;2022-10-17T05:43:59;7.00;;;5.07;;
10045;SDS011;5063;50.878;4.742;2022-10-17T05:46:24;5.53;;;4.90;;
10045;SDS011;5063;50.878;4.742;2022-10-17T05:48:50;10.70;;;4.90;;
10045;SDS011;5063;50.878;4.742;2022-10-17T05:51:17;8.33;;;5.07;;
10045;SDS011;5063;50.878;4.742;2022-10-17T05:53:42;5.70;;;4.43;;
10045;SDS011;5063;50.878;4.742;2022-10-17T05:56:09;6.80;;;5.27;;
10045;SDS011;5063;50.878;4.742;2022-10-17T05:58:38;6.73;;;4.87;;
10045;SDS011;5063;50.878;4.742;2022-10-17T06:01:06;4.90;;;4.50;;
10045;SDS011;5063;50.878;4.742;2022-10-17T06:03:32;7.20;;;4.40;;
10045;SDS011;5063;50.878;4.742;2022-10-17T06:06:02;7.10;;;5.00;;
10045;SDS011;5063;50.878;4.742;2022-10-17T06:08:32;7.87;;;4.60;;
10045;SDS011;5063;50.878;4.742;2022-10-17T06:10:58;7.43;;;4.70;;
10045;SDS011;5063;50.878;4.742;2022-10-17T06:13:24;6.77;;;4.90;;
10045;SDS011;5063;50.878;4.742;2022-10-17T06:15:50;6.40;;;4.47;;
10045;SDS011;5063;50.878;4.742;2022-10-17T06:18:16;10.47;;;4.63;;
10045;SDS011;5063;50.878;4.742;2022-10-17T06:20:42;6.47;;;4.67;;
10045;SDS011;5063;50.878;4.742;2022-10-17T06:23:08;7.87;;;5.03;;
10045;SDS011;5063;50.878;4.742;2022-10-17T06:25:33;16.43;;;6.13;;
10045;SDS011;5063;50.878;4.742;2022-10-17T06:27:59;8.63;;;5.10;;
10045;SDS011;5063;50.878;4.742;2022-10-17T06:30:25;4.53;;;4.03;;
10045;SDS011;5063;50.878;4.742;2022-10-17T06:32:51;5.17;;;4.30;;
10045;SDS011;5063;50.878;4.742;2022-10-17T06:35:18;6.50;;;4.23;;
10045;SDS011;5063;50.878;4.742;2022-10-17T06:37:44;5.67;;;4.00;;
10045;SDS011;5063;50.878;4.742;2022-10-17T06:40:09;11.87;;;4.80;;
10045;SDS011;5063;50.878;4.742;2022-10-17T06:42:36;9.10;;;4.67;;
10045;SDS011;5063;50.878;4.742;2022-10-17T06:45:03;3.87;;;3.57;;
10045;SDS011;5063;50.878;4.742;2022-10-17T06:47:29;6.70;;;3.80;;
10045;SDS011;5063;50.878;4.742;2022-10-17T06:49:55;8.67;;;4.77;;
10045;SDS011;5063;50.878;4.742;2022-10-17T06:52:21;8.73;;;3.67;;
10045;SDS011;5063;50.878;4.742;2022-10-17T06:54:47;6.27;;;3.93;;
10045;SDS011;5063;50.878;4.742;2022-10-17T06:57:13;7.53;;;4.20;;
10045;SDS011;5063;50.878;4.742;2022-10-17T06:59:38;5.03;;;3.63;;
10045;SDS011;5063;50.878;4.742;2022-10-17T07:02:04;5.33;;;4.20;;
10045;SDS011;5063;50.878;4.742;2022-10-17T07:04:30;3.83;;;3.50;;
10045;SDS011;5063;50.878;4.742;2022-10-17T07:06:56;4.10;;;3.57;;
10045;SDS011;5063;50.878;4.742;2022-10-17T07:09:22;5.83;;;4.07;;
10045;SDS011;5063;50.878;4.742;2022-10-17T07:11:48;3.65;;;3.35;;
10045;SDS011;5063;50.878;4.742;2022-10-17T07:14:14;4.90;;;3.42;;
10045;SDS011;5063;50.878;4.742;2022-10-17T07:16:39;3.95;;;3.15;;
10045;SDS011;5063;50.878;4.742;2022-10-17T07:19:05;7.28;;;3.67;;
10045;SDS011;5063;50.878;4.742;2022-10-17T07:21:31;4.47;;;3.53;;
10045;SDS011;5063;50.878;4.742;2022-10-17T07:23:57;5.57;;;2.97;;
10045;SDS011;5063;50.878;4.742;2022-10-17T07:26:23;3.53;;;3.22;;
10045;SDS011;5063;50.878;4.742;2022-10-17T07:28:50;5.32;;;3.40;;
10045;SDS011;5063;50.878;4.742;2022-10-17T07:31:17;3.90;;;2.83;;
10045;SDS011;5063;50.878;4.742;2022-10-17T07:33:45;7.22;;;3.35;;
10045;SDS011;5063;50.878;4.742;2022-10-17T07:36:11;5.68;;;3.38;;
10045;SDS011;5063;50.878;4.742;2022-10-17T07:38:37;6.32;;;3.45;;
10045;SDS011;5063;50.878;4.742;2022-10-17T07:41:04;9.90;;;3.65;;
10045;SDS011;5063;50.878;4.742;2022-10-17T07:43:31;6.32;;;3.28;;
10045;SDS011;5063;50.878;4.742;2022-10-17T07:45:59;8.32;;;3.17;;
10045;SDS011;5063;50.878;4.742;2022-10-17T07:48:25;4.20;;;3.40;;
10045;SDS011;5063;50.878;4.742;2022-10-17T07:50:51;6.63;;;3.47;;
10045;SDS011;5063;50.878;4.742;2022-10-17T07:53:17;7.20;;;3.78;;
10045;SDS011;5063;50.878;4.742;2022-10-17T07:55:43;5.40;;;3.40;;
10045;SDS011;5063;50.878;4.742;2022-10-17T07:58:11;6.87;;;3.53;;
10045;SDS011;5063;50.878;4.742;2022-10-17T08:00:37;8.13;;;3.45;;
10045;SDS011;5063;50.878;4.742;2022-10-17T08:03:03;5.97;;;3.42;;
10045;SDS011;5063;50.878;4.742;2022-10-17T08:05:30;7.93;;;3.45;;
10045;SDS011;5063;50.878;4.742;2022-10-17T08:07:56;5.63;;;3.30;;
10045;SDS011;5063;50.878;4.742;2022-10-17T08:10:22;4.23;;;3.43;;
10045;SDS011;5063;50.878;4.742;2022-10-17T08:12:52;12.50;;;3.83;;
10045;SDS011;5063;50.878;4.742;2022-10-17T08:15:19;5.30;;;3.90;;
10045;SDS011;5063;50.878;4.742;2022-10-17T08:17:44;6.97;;;4.40;;
10045;SDS011;5063;50.878;4.742;2022-10-17T08:20:10;6.80;;;3.95;;
10045;SDS011;5063;50.878;4.742;2022-10-17T08:22:36;18.95;;;4.90;;
10045;SDS011;5063;50.878;4.742;2022-10-17T08:25:02;15.18;;;4.70;;
10045;SDS011;5063;50.878;4.742;2022-10-17T08:27:28;18.70;;;5.67;;
10045;SDS011;5063;50.878;4.742;2022-10-17T08:29:54;6.60;;;3.90;;
10045;SDS011;5063;50.878;4.742;2022-10-17T08:32:20;28.83;;;6.47;;
10045;SDS011;5063;50.878;4.742;2022-10-17T08:34:49;18.43;;;4.87;;
10045;SDS011;5063;50.878;4.742;2022-10-17T08:37:14;15.20;;;5.03;;
10045;SDS011;5063;50.878;4.742;2022-10-17T08:39:40;17.73;;;4.97;;
10045;SDS011;5063;50.878;4.742;2022-10-17T08:42:25;6.90;;;4.27;;
10045;SDS011;5063;50.878;4.742;2022-10-17T08:47:59;7.90;;;3.83;;
10045;SDS011;5063;50.878;4.742;2022-10-17T08:50:32;7.23;;;3.30;;
10045;SDS011;5063;50.878;4.742;2022-10-17T08:53:08;7.83;;;4.30;;
10045;SDS011;5063;50.878;4.742;2022-10-17T08:55:43;12.27;;;5.47;;
10045;SDS011;5063;50.878;4.742;2022-10-17T08:58:16;11.77;;;4.97;;
10045;SDS011;5063;50.878;4.742;2022-10-17T09:06:24;6.53;;;4.33;;
10045;SDS011;5063;50.878;4.742;2022-10-17T09:09:01;5.70;;;4.20;;
10045;SDS011;5063;50.878;4.742;2022-10-17T09:16:55;7.50;;;5.10;;
10045;SDS011;5063;50.878;4.742;2022-10-17T09:19:44;6.80;;;4.63;;
10045;SDS011;5063;50.878;4.742;2022-10-17T09:22:24;8.27;;;4.47;;
10045;SDS011;5063;50.878;4.742;2022-10-17T09:24:54;8.60;;;4.38;;
10045;SDS011;5063;50.878;4.742;2022-10-17T09:27:37;16.47;;;5.77;;
10045;SDS011;5063;50.878;4.742;2022-10-17T09:30:19;13.07;;;6.47;;
10045;SDS011;5063;50.878;4.742;2022-10-17T09:32:56;13.60;;;5.75;;
10045;SDS011;5063;50.878;4.742;2022-10-17T09:35:22;7.10;;;4.67;;
10045;SDS011;5063;50.878;4.742;2022-10-17T09:37:49;8.70;;;4.77;;
10045;SDS011;5063;50.878;4.742;2022-10-17T09:40:21;7.67;;;4.73;;
10045;SDS011;5063;50.878;4.742;2022-10-17T09:42:51;6.47;;;4.60;;
10045;SDS011;5063;50.878;4.742;2022-10-17T09:45:18;6.80;;;4.57;;
10045;SDS011;5063;50.878;4.742;2022-10-17T09:48:00;8.77;;;4.80;;
10045;SDS011;5063;50.878;4.742;2022-10-17T09:50:31;7.40;;;4.80;;
10045;SDS011;5063;50.878;4.742;2022-10-17T09:52:59;7.10;;;4.70;;
10045;SDS011;5063;50.878;4.742;2022-10-17T09:55:46;11.07;;;5.00;;
10045;SDS011;5063;50.878;4.742;2022-10-17T09:58:14;9.77;;;4.65;;
10045;SDS011;5063;50.878;4.742;2022-10-17T10:00:44;5.47;;;4.37;;
10045;SDS011;5063;50.878;4.742;2022-10-17T10:05:39;12.95;;;4.85;;
10045;SDS011;5063;50.878;4.742;2022-10-17T10:08:14;7.90;;;4.83;;
10045;SDS011;5063;50.878;4.742;2022-10-17T10:10:41;9.13;;;4.40;;
10045;SDS011;5063;50.878;4.742;2022-10-17T10:15:38;8.70;;;4.07;;
10045;SDS011;5063;50.878;4.742;2022-10-17T10:18:25;8.07;;;4.25;;
10045;SDS011;5063;50.878;4.742;2022-10-17T10:21:10;6.30;;;4.07;;
10045;SDS011;5063;50.878;4.742;2022-10-17T10:23:37;8.10;;;3.72;;
10045;SDS011;5063;50.878;4.742;2022-10-17T10:31:45;5.95;;;4.68;;
10045;SDS011;5063;50.878;4.742;2022-10-17T10:34:23;5.82;;;4.15;;
10045;SDS011;5063;50.878;4.742;2022-10-17T10:36:55;8.70;;;4.57;;
10045;SDS011;5063;50.878;4.742;2022-10-17T10:39:34;5.00;;;4.30;;
10045;SDS011;5063;50.878;4.742;2022-10-17T10:42:01;5.63;;;4.38;;
10045;SDS011;5063;50.878;4.742;2022-10-17T10:44:30;9.50;;;4.00;;
10045;SDS011;5063;50.878;4.742;2022-10-17T10:49:41;9.23;;;3.97;;
10045;SDS011;5063;50.878;4.742;2022-10-17T10:52:09;7.82;;;3.30;;
10045;SDS011;5063;50.878;4.742;2022-10-17T10:54:49;5.10;;;3.83;;
10045;SDS011;5063;50.878;4.742;2022-10-17T10:57:20;5.88;;;3.90;;
10045;SDS011;5063;50.878;4.742;2022-10-17T10:59:53;5.65;;;3.50;;
10045;SDS011;5063;50.878;4.742;2022-10-17T11:03:20;6.70;;;3.80;;
10045;SDS011;5063;50.878;4.742;2022-10-17T11:05:59;5.28;;;3.67;;
10045;SDS011;5063;50.878;4.742;2022-10-17T11:11:08;5.43;;;3.75;;
10045;SDS011;5063;50.878;4.742;2022-10-17T11:13:57;6.00;;;3.75;;
10045;SDS011;5063;50.878;4.742;2022-10-17T11:16:27;6.68;;;3.22;;
10045;SDS011;5063;50.878;4.742;2022-10-17T11:22:00;6.95;;;3.45;;
10045;SDS011;5063;50.878;4.742;2022-10-17T11:27:28;5.45;;;3.53;;
10045;SDS011;5063;50.878;4.742;2022-10-17T11:29:55;5.55;;;3.45;;
10045;SDS011;5063;50.878;4.742;2022-10-17T11:35:02;8.13;;;3.55;;
10045;SDS011;5063;50.878;4.742;2022-10-17T11:37:43;6.15;;;3.20;;
10045;SDS011;5063;50.878;4.742;2022-10-17T11:40:35;7.90;;;3.85;;
10045;SDS011;5063;50.878;4.742;2022-10-17T11:43:15;4.75;;;3.20;;
10045;SDS011;5063;50.878;4.742;2022-10-17T11:45:51;5.15;;;3.88;;
10045;SDS011;5063;50.878;4.742;2022-10-17T11:51:11;7.82;;;3.90;;
10045;SDS011;5063;50.878;4.742;2022-10-17T11:56:21;7.30;;;3.60;;
10045;SDS011;5063;50.878;4.742;2022-10-17T12:02:11;8.98;;;4.00;;
10045;SDS011;5063;50.878;4.742;2022-10-17T12:12:49;9.52;;;5.07;;
10045;SDS011;5063;50.878;4.742;2022-10-17T12:17:45;8.10;;;3.95;;
10045;SDS011;5063;50.878;4.742;2022-10-17T12:22:52;6.72;;;3.55;;
10045;SDS011;5063;50.878;4.742;2022-10-17T12:25:26;5.90;;;3.60;;
10045;SDS011;5063;50.878;4.742;2022-10-17T12:28:02;4.72;;;3.53;;
10045;SDS011;5063;50.878;4.742;2022-10-17T12:30:30;4.30;;;3.97;;
10045;SDS011;5063;50.878;4.742;2022-10-17T12:32:57;7.88;;;3.67;;
10045;SDS011;5063;50.878;4.742;2022-10-17T12:35:36;6.30;;;3.65;;
10045;SDS011;5063;50.878;4.742;2022-10-17T12:45:51;8.13;;;4.15;;
10045;SDS011;5063;50.878;4.742;2022-10-17T12:59:00;11.63;;;4.85;;
10045;SDS011;5063;50.878;4.742;2022-10-17T13:01:37;6.07;;;3.58;;
10045;SDS011;5063;50.878;4.742;2022-10-17T13:04:05;8.52;;;3.75;;
10045;SDS011;5063;50.878;4.742;2022-10-17T13:06:35;5.95;;;4.10;;
10045;SDS011;5063;50.878;4.742;2022-10-17T13:09:19;6.65;;;3.72;;
10045;SDS011;5063;50.878;4.742;2022-10-17T13:12:00;4.72;;;4.18;;
10045;SDS011;5063;50.878;4.742;2022-10-17T13:14:28;7.57;;;4.67;;
10045;SDS011;5063;50.878;4.742;2022-10-17T13:16:58;5.97;;;4.20;;
10045;SDS011;5063;50.878;4.742;2022-10-17T13:19:28;9.27;;;4.65;;
10045;SDS011;5063;50.878;4.742;2022-10-17T13:25:04;7.07;;;4.03;;
10045;SDS011;5063;50.878;4.742;2022-10-17T13:27:33;6.53;;;4.25;;
10045;SDS011;5063;50.878;4.742;2022-10-17T13:30:01;7.10;;;4.30;;
10045;SDS011;5063;50.878;4.742;2022-10-17T13:32:45;5.47;;;4.97;;
10045;SDS011;5063;50.878;4.742;2022-10-17T13:35:12;6.13;;;4.38;;
10045;SDS011;5063;50.878;4.742;2022-10-17T13:37:40;5.13;;;4.40;;
10045;SDS011;5063;50.878;4.742;2022-10-17T13:40:19;7.78;;;4.10;;
10045;SDS011;5063;50.878;4.742;2022-10-17T13:42:53;12.90;;;4.82;;
10045;SDS011;5063;50.878;4.742;2022-10-17T13:45:33;9.43;;;4.68;;
10045;SDS011;5063;50.878;4.742;2022-10-17T13:48:02;8.15;;;5.00;;
10045;SDS011;5063;50.878;4.742;2022-10-17T13:50:42;9.75;;;4.13;;
10045;SDS011;5063;50.878;4.742;2022-10-17T13:53:30;6.07;;;4.13;;
10045;SDS011;5063;50.878;4.742;2022-10-17T13:56:00;7.72;;;4.63;;
10045;SDS011;5063;50.878;4.742;2022-10-17T13:58:30;6.15;;;4.70;;
10045;SDS011;5063;50.878;4.742;2022-10-17T14:00:59;6.63;;;4.57;;
10045;SDS011;5063;50.878;4.742;2022-10-17T14:03:25;10.15;;;4.28;;
10045;SDS011;5063;50.878;4.742;2022-10-17T14:08:34;5.68;;;4.22;;
10045;SDS011;5063;50.878;4.742;2022-10-17T14:11:01;9.40;;;4.78;;
10045;SDS011;5063;50.878;4.742;2022-10-17T14:13:37;7.75;;;4.25;;
10045;SDS011;5063;50.878;4.742;2022-10-17T14:16:03;5.00;;;3.80;;
10045;SDS011;5063;50.878;4.742;2022-10-17T14:18:30;5.95;;;3.63;;
10045;SDS011;5063;50.878;4.742;2022-10-17T14:20:58;6.72;;;4.32;;
10045;SDS011;5063;50.878;4.742;2022-10-17T14:23:30;5.25;;;3.95;;
10045;SDS011;5063;50.878;4.742;2022-10-17T14:26:06;5.57;;;3.60;;
10045;SDS011;5063;50.878;4.742;2022-10-17T14:28:41;7.50;;;4.00;;
10045;SDS011;5063;50.878;4.742;2022-10-17T14:33:41;4.13;;;3.72;;
10045;SDS011;5063;50.878;4.742;2022-10-17T14:36:12;4.85;;;3.58;;
10045;SDS011;5063;50.878;4.742;2022-10-17T14:38:43;7.43;;;3.63;;
10045;SDS011;5063;50.878;4.742;2022-10-17T14:41:24;10.77;;;4.00;;
10045;SDS011;5063;50.878;4.742;2022-10-17T14:43:55;5.13;;;3.10;;
10045;SDS011;5063;50.878;4.742;2022-10-17T14:46:21;6.38;;;3.33;;
10045;SDS011;5063;50.878;4.742;2022-10-17T14:48:55;4.00;;;3.60;;
10045;SDS011;5063;50.878;4.742;2022-10-17T14:51:27;4.70;;;3.57;;
10045;SDS011;5063;50.878;4.742;2022-10-17T14:54:00;7.97;;;3.63;;
10045;SDS011;5063;50.878;4.742;2022-10-17T14:56:49;4.60;;;3.13;;
10045;SDS011;5063;50.878;4.742;2022-10-17T14:59:16;5.63;;;3.40;;
10045;SDS011;5063;50.878;4.742;2022-10-17T15:01:49;4.60;;;3.47;;
10045;SDS011;5063;50.878;4.742;2022-10-17T15:04:15;4.57;;;3.03;;
10045;SDS011;5063;50.878;4.742;2022-10-17T15:06:42;5.38;;;3.10;;
10045;SDS011;5063;50.878;4.742;2022-10-17T15:09:08;3.30;;;2.90;;
10045;SDS011;5063;50.878;4.742;2022-10-17T15:11:35;6.70;;;4.03;;
10045;SDS011;5063;50.878;4.742;2022-10-17T15:14:01;6.35;;;3.25;;
10045;SDS011;5063;50.878;4.742;2022-10-17T15:16:31;5.85;;;3.38;;
10045;SDS011;5063;50.878;4.742;2022-10-17T15:18:58;8.65;;;3.20;;
10045;SDS011;5063;50.878;4.742;2022-10-17T15:21:25;5.00;;;3.28;;
10045;SDS011;5063;50.878;4.742;2022-10-17T15:23:52;6.63;;;3.50;;
10045;SDS011;5063;50.878;4.742;2022-10-17T15:26:25;5.15;;;3.25;;
10045;SDS011;5063;50.878;4.742;2022-10-17T15:28:54;6.57;;;3.30;;
10045;SDS011;5063;50.878;4.742;2022-10-17T15:31:21;3.83;;;3.50;;
10045;SDS011;5063;50.878;4.742;2022-10-17T15:33:48;4.43;;;3.33;;
10045;SDS011;5063;50.878;4.742;2022-10-17T15:38:49;4.23;;;3.50;;
10045;SDS011;5063;50.878;4.742;2022-10-17T15:41:17;7.43;;;3.50;;
10045;SDS011;5063;50.878;4.742;2022-10-17T15:43:43;5.00;;;3.83;;
10045;SDS011;5063;50.878;4.742;2022-10-17T15:46:11;6.75;;;3.92;;
10045;SDS011;5063;50.878;4.742;2022-10-17T15:48:42;6.83;;;3.60;;
10045;SDS011;5063;50.878;4.742;2022-10-17T15:51:08;6.07;;;4.17;;
10045;SDS011;5063;50.878;4.742;2022-10-17T15:53:35;5.50;;;4.10;;
10045;SDS011;5063;50.878;4.742;2022-10-17T15:56:01;5.30;;;4.50;;
10045;SDS011;5063;50.878;4.742;2022-10-17T15:58:30;6.33;;;4.73;;
10045;SDS011;5063;50.878;4.742;2022-10-17T16:01:01;6.50;;;4.93;;
10045;SDS011;5063;50.878;4.742;2022-10-17T16:03:28;6.97;;;5.37;;
10045;SDS011;5063;50.878;4.742;2022-10-17T16:05:54;8.27;;;5.47;;
10045;SDS011;5063;50.878;4.742;2022-10-17T16:08:20;5.43;;;4.83;;
10045;SDS011;5063;50.878;4.742;2022-10-17T16:10:46;5.37;;;4.77;;
10045;SDS011;5063;50.878;4.742;2022-10-17T16:13:14;12.13;;;4.77;;
10045;SDS011;5063;50.878;4.742;2022-10-17T16:15:48;9.97;;;6.07;;
10045;SDS011;5063;50.878;4.742;2022-10-17T16:18:14;7.47;;;5.60;;
10045;SDS011;5063;50.878;4.742;2022-10-17T16:20:40;5.87;;;4.80;;
10045;SDS011;5063;50.878;4.742;2022-10-17T16:23:05;6.83;;;5.30;;
10045;SDS011;5063;50.878;4.742;2022-10-17T16:25:33;10.87;;;6.23;;
10045;SDS011;5063;50.878;4.742;2022-10-17T16:27:59;10.67;;;5.63;;
10045;SDS011;5063;50.878;4.742;2022-10-17T16:30:25;7.97;;;5.70;;
10045;SDS011;5063;50.878;4.742;2022-10-17T16:32:53;7.90;;;6.27;;
10045;SDS011;5063;50.878;4.742;2022-10-17T16:35:23;8.27;;;6.33;;
10045;SDS011;5063;50.878;4.742;2022-10-17T16:37:51;7.07;;;5.20;;
10045;SDS011;5063;50.878;4.742;2022-10-17T16:40:17;10.23;;;5.67;;
10045;SDS011;5063;50.878;4.742;2022-10-17T16:42:43;8.77;;;5.80;;
10045;SDS011;5063;50.878;4.742;2022-10-17T16:45:20;8.73;;;6.13;;
10045;SDS011;5063;50.878;4.742;2022-10-17T16:47:47;6.50;;;5.90;;
10045;SDS011;5063;50.878;4.742;2022-10-17T16:50:14;7.27;;;6.13;;
10045;SDS011;5063;50.878;4.742;2022-10-17T16:52:40;7.63;;;6.03;;
10045;SDS011;5063;50.878;4.742;2022-10-17T16:55:06;9.50;;;5.33;;
10045;SDS011;5063;50.878;4.742;2022-10-17T16:57:33;10.30;;;5.63;;
10045;SDS011;5063;50.878;4.742;2022-10-17T16:59:59;7.40;;;5.30;;
10045;SDS011;5063;50.878;4.742;2022-10-17T17:02:25;6.23;;;4.57;;
10045;SDS011;5063;50.878;4.742;2022-10-17T17:04:51;8.50;;;5.30;;
10045;SDS011;5063;50.878;4.742;2022-10-17T17:07:17;8.60;;;4.77;;
10045;SDS011;5063;50.878;4.742;2022-10-17T17:09:43;9.17;;;5.03;;
10045;SDS011;5063;50.878;4.742;2022-10-17T17:12:09;7.60;;;5.30;;
10045;SDS011;5063;50.878;4.742;2022-10-17T17:14:35;6.17;;;4.77;;
10045;SDS011;5063;50.878;4.742;2022-10-17T17:17:02;4.60;;;4.10;;
10045;SDS011;5063;50.878;4.742;2022-10-17T17:19:28;8.37;;;3.80;;